Time;durP1;ratioP1;P1;durP2;ratioP2;P2;SDS_P1;SDS_P2;PMS_P1;PMS_P2;Temp;Humidity;BMP_temperature;BMP_pressure;BME280_temperature;BME280_humidity;BME280_pressure;Samples;Min_cycle;Max_cycle;Signal;HPM_P1;HPM_P2
2021/01/16 00:01:53;;;;;;;58.72;21.90;;;;;;;3.29;78.91;101554.88;4431166;32;20050;-78
2021/01/16 00:04:19;;;;;;;53.22;22.33;;;;;;;3.31;78.43;101529.44;4454773;32;20041;-76
2021/01/16 00:06:44;;;;;;;54.75;22.05;;;;;;;3.34;78.96;101526.72;4452828;32;20051;-76
2021/01/16 00:09:10;;;;;;;61.33;22.60;;;;;;;3.38;78.48;101524.00;4455325;32;20467;-75
2021/01/16 00:11:36;;;;;;;57.08;22.73;;;;;;;3.43;78.53;101512.56;4455999;32;20103;-76
2021/01/16 00:14:01;;;;;;;52.25;21.60;;;;;;;3.32;78.56;101506.81;4454557;32;20081;-77
2021/01/16 00:16:27;;;;;;;55.17;21.17;;;;;;;3.45;78.39;101502.69;4454788;32;20153;-77
2021/01/16 00:18:53;;;;;;;51.20;21.73;;;;;;;3.43;78.69;101504.22;4456417;32;20139;-77
2021/01/16 00:21:19;;;;;;;51.37;21.30;;;;;;;3.42;77.71;101500.66;4461162;32;20080;-76
2021/01/16 00:23:44;;;;;;;53.42;22.55;;;;;;;3.42;77.78;101497.87;4454406;32;20041;-77
2021/01/16 00:26:10;;;;;;;53.33;23.00;;;;;;;3.52;77.73;101494.44;4452251;32;20029;-77
2021/01/16 00:28:35;;;;;;;52.85;21.83;;;;;;;3.54;77.67;101480.16;4454865;32;20052;-75
2021/01/16 00:31:03;;;;;;;50.20;21.27;;;;;;;3.50;77.41;101476.53;4458547;32;20100;-78
2021/01/16 00:33:32;;;;;;;48.63;20.92;;;;;;;3.36;77.89;101454.03;4451925;32;20029;-77
2021/01/16 00:35:58;;;;;;;57.90;23.25;;;;;;;3.49;77.83;101445.09;4457291;32;20410;-77
2021/01/16 00:38:26;;;;;;;50.65;21.37;;;;;;;3.49;77.90;101447.06;4454203;32;20091;-78
2021/01/16 00:40:52;;;;;;;51.22;21.55;;;;;;;3.51;77.83;101448.31;4454056;32;20544;-77
2021/01/16 00:43:18;;;;;;;49.58;21.52;;;;;;;3.55;77.82;101435.25;4457398;32;20049;-77
2021/01/16 00:45:45;;;;;;;54.35;21.77;;;;;;;3.55;77.93;101418.56;4455408;32;20365;-76
2021/01/16 00:48:13;;;;;;;48.22;21.02;;;;;;;3.42;78.90;101417.19;4456046;32;20422;-76
2021/01/16 00:50:40;;;;;;;51.90;21.08;;;;;;;3.53;78.27;101395.87;4457098;32;20032;-78
2021/01/16 00:53:07;;;;;;;53.78;20.42;;;;;;;3.70;77.92;101403.69;4456387;32;20092;-78
2021/01/16 00:55:35;;;;;;;44.83;20.52;;;;;;;3.62;78.32;101396.41;4459923;32;20029;-77
2021/01/16 00:58:11;;;;;;;53.72;22.55;;;;;;;3.61;78.20;101389.22;4455528;32;20059;-75
2021/01/16 01:00:37;;;;;;;47.85;20.73;;;;;;;3.51;79.38;101384.31;4457952;32;20041;-78
2021/01/16 01:03:03;;;;;;;50.12;21.92;;;;;;;3.55;79.19;101362.09;4453287;32;20058;-77
2021/01/16 01:05:29;;;;;;;51.13;21.42;;;;;;;3.51;79.64;101362.06;4462970;32;20033;-75
2021/01/16 01:07:55;;;;;;;52.72;22.13;;;;;;;3.71;78.93;101366.31;4456741;32;20076;-76
2021/01/16 01:12:59;;;;;;;54.25;21.60;;;;;;;3.76;79.18;101343.72;3988952;32;15024323;-77
2021/01/16 01:15:24;;;;;;;44.67;20.10;;;;;;;3.69;79.27;101334.47;4445776;32;20100;-75
2021/01/16 01:17:53;;;;;;;46.08;19.20;;;;;;;3.71;79.31;101326.53;4437601;32;20042;-75
2021/01/16 01:20:19;;;;;;;48.85;19.25;;;;;;;3.62;79.69;101312.91;4440330;32;20088;-76
2021/01/16 01:22:47;;;;;;;46.17;19.60;;;;;;;3.78;79.16;101304.37;4437693;32;20087;-74
2021/01/16 01:25:13;;;;;;;45.53;18.70;;;;;;;3.98;78.43;101308.56;4441439;32;20137;-77
2021/01/16 01:27:39;;;;;;;40.95;17.55;;;;;;;3.99;78.24;101296.28;4438350;32;20079;-77
2021/01/16 01:30:06;;;;;;;52.58;18.92;;;;;;;4.09;77.75;101296.38;4440223;32;20452;-75
2021/01/16 01:32:33;;;;;;;39.97;17.58;;;;;;;4.14;77.85;101296.03;4436518;32;20104;-75
2021/01/16 01:34:59;;;;;;;42.70;19.05;;;;;;;4.08;77.71;101291.19;4428672;32;20422;-77
2021/01/16 01:37:25;;;;;;;46.78;18.45;;;;;;;4.09;77.93;101284.44;4426233;32;20045;-77
2021/01/16 01:39:50;;;;;;;40.22;17.37;;;;;;;4.12;77.96;101286.47;4415059;32;20030;-75
2021/01/16 01:42:19;;;;;;;36.95;17.80;;;;;;;4.11;77.99;101271.72;4426713;32;20072;-75
2021/01/16 01:44:46;;;;;;;41.40;18.40;;;;;;;4.12;77.77;101275.31;4423771;32;20030;-76
2021/01/16 01:47:13;;;;;;;47.10;18.70;;;;;;;4.22;77.41;101269.06;4430881;32;20034;-77
2021/01/16 01:49:40;;;;;;;42.08;18.92;;;;;;;4.22;77.33;101257.91;4423117;32;20447;-75
2021/01/16 01:52:08;;;;;;;39.58;18.35;;;;;;;4.21;77.32;101247.97;4422148;32;20547;-77
2021/01/16 01:54:35;;;;;;;43.10;18.45;;;;;;;4.36;77.37;101240.53;4428681;32;20025;-78
2021/01/16 01:57:02;;;;;;;37.60;17.40;;;;;;;4.39;77.03;101237.78;4422163;32;20149;-77
2021/01/16 01:59:34;;;;;;;46.72;18.12;;;;;;;4.48;76.81;101241.03;4430112;32;20076;-76
2021/01/16 02:02:00;;;;;;;39.95;18.52;;;;;;;4.45;77.07;101229.87;4424740;32;20130;-76
2021/01/16 02:04:29;;;;;;;43.42;17.95;;;;;;;4.40;77.05;101231.03;4424574;32;20087;-76
2021/01/16 02:06:54;;;;;;;47.08;19.00;;;;;;;4.42;77.46;101234.19;4426389;32;20030;-76
2021/01/16 02:09:20;;;;;;;40.20;18.48;;;;;;;4.41;77.10;101199.19;4420440;32;20579;-76
2021/01/16 02:11:46;;;;;;;44.95;19.27;;;;;;;4.31;77.53;101199.91;4423977;32;20453;-77
2021/01/16 02:14:13;;;;;;;48.58;19.37;;;;;;;4.38;77.75;101196.37;4422241;32;20033;-76
2021/01/16 02:16:44;;;;;;;45.30;19.08;;;;;;;4.26;78.71;101189.09;4423689;32;20065;-77
2021/01/16 02:19:12;;;;;;;43.30;18.70;;;;;;;4.25;78.89;101193.06;4422952;32;20029;-77
2021/01/16 02:21:43;;;;;;;46.88;19.85;;;;;;;4.24;78.61;101182.31;4422757;32;20060;-75
2021/01/16 02:29:22;;;;;;;42.28;19.75;;;;;;;4.70;78.20;101155.59;4015254;31;15014664;-76
2021/01/16 02:32:04;;;;;;;45.92;20.58;;;;;;;4.70;78.20;101155.59;4469182;32;20493;-76
2021/01/16 02:34:35;;;;;;;44.90;18.70;;;;;;;4.37;78.72;101147.38;4445584;32;20393;-77
2021/01/16 02:42:36;;;;;;;45.10;20.33;;;;;;;4.76;77.91;101134.53;3983796;32;15022235;-78
2021/01/16 02:45:09;;;;;;;42.62;18.98;;;;;;;4.76;77.91;101134.53;4433374;32;20092;-76
2021/01/16 02:50:22;;;;;;;45.72;18.23;;;;;;;4.57;78.52;101113.28;3994207;32;15022817;-76
2021/01/16 02:52:49;;;;;;;40.28;18.02;;;;;;;4.55;78.46;101109.31;4439544;32;20093;-78
2021/01/16 02:55:17;;;;;;;41.92;17.80;;;;;;;4.54;78.27;101116.84;4432180;32;20038;-76
2021/01/16 02:57:43;;;;;;;40.08;18.65;;;;;;;4.55;78.17;101098.97;4440372;32;20056;-78
2021/01/16 03:00:11;;;;;;;36.95;18.60;;;;;;;4.64;77.91;101107.78;4440352;32;20026;-76
2021/01/16 03:02:37;;;;;;;36.92;17.90;;;;;;;4.61;78.20;101107.75;4433886;32;20074;-77
2021/01/16 03:05:04;;;;;;;41.35;17.23;;;;;;;4.62;78.20;101106.56;4442408;32;20034;-78
2021/01/16 03:07:32;;;;;;;42.00;17.83;;;;;;;4.53;78.78;101101.34;4437456;32;20067;-77
2021/01/16 03:10:04;;;;;;;54.85;19.30;;;;;;;4.64;78.48;101098.59;4440528;32;20034;-77
2021/01/16 03:12:30;;;;;;;30.77;16.20;;;;;;;4.54;78.98;101088.22;4440317;32;20097;-73
2021/01/16 03:14:59;;;;;;;38.20;16.58;;;;;;;4.62;78.77;101067.53;4438825;32;20335;-76
2021/01/16 03:17:41;;;;;;;36.53;16.23;;;;;;;4.69;78.91;101089.88;4439684;32;20034;-76
2021/01/16 03:20:07;;;;;;;39.88;16.75;;;;;;;4.53;79.58;101076.25;4433434;32;20026;-76
2021/01/16 03:22:33;;;;;;;48.38;18.65;;;;;;;4.58;79.77;101064.75;4441459;32;20041;-78
2021/01/16 03:24:58;;;;;;;44.63;18.48;;;;;;;4.48;80.15;101048.75;4440419;32;20106;-76
2021/01/16 03:27:26;;;;;;;41.37;18.17;;;;;;;4.45;80.22;101059.88;4440348;32;20034;-75
2021/01/16 03:29:53;;;;;;;40.22;17.17;;;;;;;4.65;80.22;101036.09;4436670;32;20128;-77
2021/01/16 03:32:19;;;;;;;42.30;18.42;;;;;;;4.62;79.81;101036.87;4439573;32;20391;-78
2021/01/16 03:34:48;;;;;;;41.63;17.50;;;;;;;4.57;80.54;101012.97;4427321;32;20081;-77
2021/01/16 03:37:15;;;;;;;45.60;19.45;;;;;;;4.53;80.58;101008.56;4425898;32;20403;-77
2021/01/16 03:39:41;;;;;;;39.65;18.70;;;;;;;4.53;81.10;101005.78;4427957;32;20022;-76
2021/01/16 03:42:07;;;;;;;39.20;18.77;;;;;;;4.48;81.59;100998.56;4427957;32;20078;-78
2021/01/16 03:44:34;;;;;;;36.72;18.05;;;;;;;4.46;81.62;100994.59;4428705;32;21167;-77
2021/01/16 03:46:59;;;;;;;40.85;18.05;;;;;;;4.52;81.16;101001.41;4423447;32;20050;-76
2021/01/16 03:49:25;;;;;;;36.40;18.45;;;;;;;4.47;81.61;100987.81;4425767;32;21704;-75
2021/01/16 03:51:51;;;;;;;38.97;18.17;;;;;;;4.57;81.43;100981.53;4428210;32;20095;-76
2021/01/16 03:54:16;;;;;;;39.00;18.55;;;;;;;4.57;81.31;100973.94;4428846;32;20037;-77
2021/01/16 03:56:42;;;;;;;32.85;15.85;;;;;;;4.57;81.33;100962.78;4426571;32;20030;-76
2021/01/16 03:59:08;;;;;;;31.73;15.95;;;;;;;4.62;81.46;100962.41;4426683;32;20416;-75
2021/01/16 04:01:34;;;;;;;34.50;16.15;;;;;;;4.64;81.67;100937.75;4415416;32;20037;-77
2021/01/16 04:04:01;;;;;;;30.92;15.38;;;;;;;4.67;82.08;100927.78;4417947;32;20081;-76
2021/01/16 04:06:27;;;;;;;30.30;15.45;;;;;;;4.59;82.28;100915.81;4417785;32;20355;-74
2021/01/16 04:08:52;;;;;;;30.50;14.23;;;;;;;4.56;82.39;100908.25;4418193;32;20034;-74
2021/01/16 04:11:18;;;;;;;27.85;14.23;;;;;;;4.53;82.55;100897.87;4410658;32;20096;-75
2021/01/16 04:13:44;;;;;;;28.23;13.82;;;;;;;4.56;82.70;100897.09;4415701;32;20065;-75
2021/01/16 04:16:09;;;;;;;27.08;13.20;;;;;;;4.45;83.04;100889.91;4412897;32;20022;-75
2021/01/16 04:18:36;;;;;;;25.15;13.60;;;;;;;4.43;83.58;100870.00;4412025;32;20081;-75
2021/01/16 04:21:03;;;;;;;27.52;12.90;;;;;;;4.31;83.84;100871.16;4413329;32;20525;-75
2021/01/16 04:23:29;;;;;;;24.87;12.63;;;;;;;4.23;84.72;100877.09;4408865;32;20025;-76
2021/01/16 04:25:55;;;;;;;21.58;11.43;;;;;;;4.20;85.11;100869.53;4414392;32;20080;-75
2021/01/16 04:28:21;;;;;;;25.25;12.43;;;;;;;4.17;85.39;100859.97;4412537;32;20022;-78
2021/01/16 04:30:46;;;;;;;26.33;12.15;;;;;;;4.14;85.50;100839.25;4417155;32;20422;-74
2021/01/16 04:33:13;;;;;;;19.67;11.73;;;;;;;4.14;85.40;100857.94;4417697;32;20042;-73
2021/01/16 04:35:39;;;;;;;23.35;12.23;;;;;;;4.15;85.42;100831.72;4419615;32;20103;-74
2021/01/16 04:38:05;;;;;;;22.70;12.15;;;;;;;4.14;85.73;100830.09;4415500;32;20056;-74
2021/01/16 04:40:31;;;;;;;24.15;11.52;;;;;;;4.18;85.73;100809.44;4418790;32;20022;-75
2021/01/16 04:42:58;;;;;;;23.48;12.18;;;;;;;4.15;86.30;100801.84;4416008;32;20022;-72
2021/01/16 04:45:24;;;;;;;22.37;11.75;;;;;;;4.15;86.40;100793.50;4416248;32;20532;-74
2021/01/16 04:47:50;;;;;;;23.17;10.88;;;;;;;4.16;86.12;100785.97;4419652;32;20396;-74
2021/01/16 04:50:18;;;;;;;20.98;11.07;;;;;;;4.18;86.02;100796.69;4412322;32;20476;-73
2021/01/16 04:52:45;;;;;;;22.45;11.10;;;;;;;4.20;86.53;100775.63;4414340;32;20029;-74
2021/01/16 04:55:14;;;;;;;23.25;11.57;;;;;;;4.22;86.74;100781.59;4416768;32;20081;-73
2021/01/16 04:57:40;;;;;;;20.70;10.82;;;;;;;4.18;86.64;100772.44;4410880;32;20068;-76
2021/01/16 05:00:10;;;;;;;22.77;11.75;;;;;;;4.12;86.79;100762.87;4419147;32;20469;-76
2021/01/16 05:02:39;;;;;;;17.62;9.35;;;;;;;4.22;86.87;100756.53;4408624;32;20109;-75
2021/01/16 05:05:07;;;;;;;18.77;9.93;;;;;;;4.17;87.24;100740.19;4418216;32;20105;-75
2021/01/16 05:07:34;;;;;;;17.58;9.10;;;;;;;4.13;87.12;100743.00;4417105;32;20089;-73
2021/01/16 05:10:03;;;;;;;19.92;9.50;;;;;;;4.14;87.47;100727.06;4417726;32;20067;-74
2021/01/16 05:15:15;;;;;;;15.73;8.60;;;;;;;4.63;86.38;100715.94;3982696;32;15169630;-75
2021/01/16 05:17:45;;;;;;;14.18;6.95;;;;;;;4.63;86.38;100715.94;4446717;32;20037;-78
2021/01/16 05:20:11;;;;;;;12.32;6.70;;;;;;;4.14;87.20;100711.16;4445493;32;20052;-76
2021/01/16 05:22:37;;;;;;;15.68;6.62;;;;;;;4.08;87.29;100692.44;4445512;32;20053;-75
2021/01/16 05:25:05;;;;;;;11.63;6.87;;;;;;;4.12;87.89;100687.69;4443848;32;20047;-76
2021/01/16 05:27:34;;;;;;;12.90;6.57;;;;;;;4.14;87.61;100693.66;4445014;32;20132;-77
2021/01/16 05:30:06;;;;;;;11.85;6.28;;;;;;;4.16;87.87;100666.22;4439759;32;20083;-75
2021/01/16 05:32:32;;;;;;;12.60;6.43;;;;;;;4.09;87.83;100685.69;4443439;32;20090;-73
2021/01/16 05:35:13;;;;;;;13.25;6.30;;;;;;;4.05;88.22;100662.59;4428005;32;20030;-77
2021/01/16 05:37:39;;;;;;;13.73;5.85;;;;;;;4.18;87.89;100666.63;4430226;32;20063;-74
2021/01/16 05:40:08;;;;;;;9.68;5.53;;;;;;;4.12;87.96;100651.50;4426258;32;20112;-74
2021/01/16 05:42:34;;;;;;;9.82;5.35;;;;;;;4.11;87.57;100678.53;4430072;32;20065;-75
2021/01/16 05:45:01;;;;;;;9.43;5.10;;;;;;;4.13;87.78;100639.16;4424595;32;20091;-75
2021/01/16 05:47:28;;;;;;;9.15;4.93;;;;;;;4.06;88.17;100634.34;4431269;32;20060;-77
2021/01/16 05:49:55;;;;;;;12.37;5.12;;;;;;;4.08;88.36;100634.78;4424207;32;20046;-76
2021/01/16 05:52:21;;;;;;;7.57;4.47;;;;;;;4.03;88.24;100631.59;4429177;32;20100;-76
2021/01/16 05:54:50;;;;;;;9.40;4.12;;;;;;;4.00;88.31;100643.53;4431018;32;20098;-74
2021/01/16 05:57:17;;;;;;;10.00;4.62;;;;;;;4.08;88.30;100620.03;4431338;32;20029;-76
2021/01/16 05:59:45;;;;;;;8.73;4.10;;;;;;;4.04;88.04;100622.03;4430222;32;20018;-76
2021/01/16 06:02:13;;;;;;;8.10;4.40;;;;;;;4.02;88.49;100613.31;4428408;32;20065;-77
2021/01/16 06:04:46;;;;;;;7.28;4.05;;;;;;;4.03;87.97;100609.31;4430668;32;20066;-76
2021/01/16 06:07:12;;;;;;;5.40;2.90;;;;;;;4.00;87.89;100598.97;4429873;32;20334;-76
2021/01/16 06:09:38;;;;;;;8.00;3.47;;;;;;;4.00;87.63;100591.44;4428886;32;20453;-74
2021/01/16 06:12:06;;;;;;;5.85;3.50;;;;;;;4.06;87.62;100587.03;4429778;32;20139;-74
2021/01/16 06:14:43;;;;;;;7.07;3.35;;;;;;;4.00;87.41;100590.63;4429627;32;20152;-75
2021/01/16 06:17:11;;;;;;;9.23;4.00;;;;;;;3.94;87.52;100604.16;4428680;32;20056;-76
2021/01/16 06:19:43;;;;;;;8.40;3.70;;;;;;;3.94;87.50;100587.44;4429601;32;20050;-77
2021/01/16 06:22:10;;;;;;;5.60;3.50;;;;;;;3.95;87.28;100575.09;4428364;32;20052;-73
2021/01/16 06:24:37;;;;;;;9.30;4.05;;;;;;;3.95;87.16;100574.31;4427443;32;20492;-74
2021/01/16 06:27:03;;;;;;;8.60;4.28;;;;;;;3.88;87.24;100575.13;4414466;32;20067;-77
2021/01/16 06:29:31;;;;;;;7.25;4.22;;;;;;;3.90;87.59;100566.37;4419357;32;20022;-75
2021/01/16 06:32:12;;;;;;;7.72;3.65;;;;;;;3.90;87.66;100561.59;4418786;32;20071;-73
2021/01/16 06:34:40;;;;;;;5.65;3.80;;;;;;;3.93;87.57;100554.44;4416641;32;20433;-76
2021/01/16 06:50:11;;;;;;;10.88;4.43;;;;;;;3.96;87.70;100534.94;3919940;32;15021739;-73
2021/01/16 06:52:38;;;;;;;9.10;3.95;;;;;;;3.89;87.64;100528.56;4359903;32;20078;-75
2021/01/16 06:55:06;;;;;;;7.18;3.45;;;;;;;3.92;87.67;100525.78;4370102;32;20086;-75
2021/01/16 06:57:34;;;;;;;6.95;3.67;;;;;;;3.88;87.81;100524.22;4367135;32;20032;-76
2021/01/16 07:00:06;;;;;;;6.20;3.47;;;;;;;3.90;87.82;100527.41;4364306;32;20121;-73
2021/01/16 07:02:35;;;;;;;6.18;3.58;;;;;;;3.96;87.79;100531.38;4363676;32;20127;-74
2021/01/16 07:07:40;;;;;;;6.20;3.10;;;;;;;4.38;87.46;100513.78;3990705;32;15023969;-75
2021/01/16 07:10:09;;;;;;;6.50;3.33;;;;;;;4.38;87.46;100513.78;4434621;32;20061;-74
2021/01/16 07:12:37;;;;;;;6.62;3.50;;;;;;;4.03;88.13;100495.16;4445470;32;20041;-73
2021/01/16 07:15:05;;;;;;;5.15;2.70;;;;;;;3.87;88.81;100484.44;4445202;32;20446;-75
2021/01/16 07:17:31;;;;;;;5.45;2.97;;;;;;;3.94;88.73;100486.44;4445053;32;20033;-75
2021/01/16 07:19:58;;;;;;;3.97;2.30;;;;;;;3.89;88.88;100481.25;4443668;32;20086;-75
2021/01/16 07:22:28;;;;;;;4.43;2.70;;;;;;;3.84;89.35;100464.97;4445712;32;20045;-72
2021/01/16 07:24:55;;;;;;;4.78;2.67;;;;;;;3.78;89.52;100452.66;4439332;32;20033;-76
2021/01/16 07:27:22;;;;;;;7.22;2.83;;;;;;;3.74;89.40;100441.53;4445429;32;20052;-76
2021/01/16 07:29:48;;;;;;;3.78;2.30;;;;;;;3.80;89.29;100447.47;4441342;32;20030;-72
2021/01/16 07:32:15;;;;;;;3.45;2.30;;;;;;;3.77;89.73;100442.69;4443419;32;20427;-78
2021/01/16 07:34:45;;;;;;;4.55;2.45;;;;;;;3.74;89.44;100441.53;4431695;32;20465;-75
2021/01/16 07:37:12;;;;;;;4.57;2.53;;;;;;;3.78;89.56;100438.75;4431187;32;20033;-74
2021/01/16 07:39:40;;;;;;;3.97;1.83;;;;;;;3.74;89.79;100438.72;4429893;32;20516;-76
2021/01/16 07:42:12;;;;;;;3.58;2.20;;;;;;;3.76;89.93;100439.16;4429736;32;20026;-74
2021/01/16 07:44:42;;;;;;;4.55;1.87;;;;;;;3.79;89.91;100430.00;4425546;32;20089;-76
2021/01/16 07:47:23;;;;;;;4.68;2.45;;;;;;;3.82;89.85;100425.59;4430204;32;20472;-76
2021/01/16 07:49:53;;;;;;;3.58;1.95;;;;;;;3.88;89.59;100433.16;4425751;32;20037;-74
2021/01/16 07:52:24;;;;;;;6.18;2.55;;;;;;;3.88;89.43;100429.56;4429829;32;20157;-75
2021/01/16 07:55:06;;;;;;;5.45;1.87;;;;;;;3.88;89.55;100433.16;4427626;32;20041;-73
2021/01/16 07:57:33;;;;;;;2.62;1.58;;;;;;;3.90;89.58;100425.19;4428820;32;20064;-75
2021/01/16 08:00:07;;;;;;;3.25;1.85;;;;;;;3.87;89.62;100439.12;4430338;32;20426;-76
2021/01/16 08:03:04;;;;;;;4.37;2.35;;;;;;;3.86;89.73;100429.97;4428839;32;20065;-76
2021/01/16 08:05:38;;;;;;;4.37;1.90;;;;;;;3.90;89.90;100438.31;4429289;32;20076;-74
2021/01/16 08:10:53;;;;;;;4.40;2.30;;;;;;;4.35;89.15;100442.94;4004586;31;15016542;-77
2021/01/16 08:13:23;;;;;;;3.72;2.17;;;;;;;4.35;89.15;100442.94;4444330;32;20040;-76
2021/01/16 08:15:49;;;;;;;6.95;2.12;;;;;;;3.94;90.08;100445.47;4445147;32;20098;-75
2021/01/16 08:18:22;;;;;;;4.05;2.30;;;;;;;3.93;90.35;100440.31;4442586;32;20025;-76
2021/01/16 08:20:49;;;;;;;4.03;2.87;;;;;;;3.96;90.03;100437.50;4445367;32;20418;-77
2021/01/16 08:23:45;;;;;;;3.83;1.85;;;;;;;3.99;89.90;100444.28;4445716;32;20113;-75
2021/01/16 08:26:10;;;;;;;2.95;1.77;;;;;;;4.08;89.84;100448.22;4444516;32;20057;-77
2021/01/16 08:28:38;;;;;;;4.07;1.70;;;;;;;4.05;89.89;100449.00;4446088;32;20079;-75
2021/01/16 08:31:04;;;;;;;3.28;1.83;;;;;;;4.08;90.00;100451.00;4446818;32;20042;-77
2021/01/16 08:33:32;;;;;;;3.87;1.67;;;;;;;4.09;89.97;100463.72;4436405;32;20029;-75
2021/01/16 08:36:16;;;;;;;4.68;2.40;;;;;;;4.21;89.57;100468.09;4429687;32;20060;-74
2021/01/16 08:38:43;;;;;;;3.42;2.00;;;;;;;4.26;89.59;100486.38;4424793;32;20486;-76
2021/01/16 08:41:09;;;;;;;3.00;2.08;;;;;;;4.21;89.85;100472.84;4430363;32;20067;-76
2021/01/16 08:46:36;;;;;;;4.25;1.83;;;;;;;4.75;88.54;100478.59;3993411;32;15023176;-74
2021/01/16 08:51:41;;;;;;;3.70;2.12;;;;;;;4.47;89.73;100469.56;3964581;32;15723586;-75
2021/01/16 08:56:48;;;;;;;5.95;2.40;;;;;;;4.76;88.64;100471.03;3987372;32;15024829;-73
2021/01/16 09:01:51;;;;;;;5.55;3.20;;;;;;;4.75;88.91;100469.28;3987993;32;15026596;-76
2021/01/16 09:07:12;;;;;;;3.70;2.73;;;;;;;4.68;89.19;100468.84;4010367;31;15019716;-76
2021/01/16 09:09:38;;;;;;;5.87;3.10;;;;;;;4.69;89.19;100476.66;4464107;32;20193;-75
2021/01/16 09:14:40;;;;;;;3.92;2.55;;;;;;;4.50;90.12;100463.19;3985851;32;15023897;-77
2021/01/16 09:17:18;;;;;;;3.87;2.72;;;;;;;4.49;90.14;100464.37;4446584;32;20025;-75
2021/01/16 09:19:43;;;;;;;6.20;2.70;;;;;;;4.51;89.90;100460.00;4434146;32;20081;-75
2021/01/16 09:22:18;;;;;;;5.22;2.30;;;;;;;4.55;89.87;100466.38;4446684;32;20112;-74
2021/01/16 09:24:45;;;;;;;3.50;2.12;;;;;;;4.69;89.32;100469.06;4439616;32;20064;-75
2021/01/16 09:27:28;;;;;;;4.00;2.17;;;;;;;4.69;89.20;100469.06;4447212;32;20229;-74
2021/01/16 09:29:55;;;;;;;4.68;2.17;;;;;;;4.83;88.89;100479.38;4442567;32;20069;-76
2021/01/16 09:32:30;;;;;;;2.83;1.98;;;;;;;4.85;88.47;100477.75;4439528;32;20077;-75
2021/01/16 09:34:56;;;;;;;;;;;;;;;4.83;88.31;100477.37;4428591;32;20475;-76
2021/01/16 09:37:24;;;;;;;3.70;2.03;;;;;;;4.81;88.12;100470.59;4425570;32;19984;-76
2021/01/16 09:40:11;;;;;;;3.10;2.00;;;;;;;4.77;88.46;100490.16;4426039;32;20056;-75
2021/01/16 09:42:47;;;;;;;6.68;2.65;;;;;;;4.87;88.48;100491.28;4428068;32;20038;-77
2021/01/16 09:45:14;;;;;;;3.90;1.80;;;;;;;4.92;87.97;100497.25;4430977;32;20084;-76
2021/01/16 09:47:41;;;;;;;5.30;2.42;;;;;;;4.80;88.53;100496.91;4429223;32;20121;-75
2021/01/16 09:50:11;;;;;;;3.83;2.22;;;;;;;4.76;88.80;100465.47;4429529;32;20475;-74
2021/01/16 09:55:31;;;;;;;5.25;1.80;;;;;;;4.90;88.90;100491.28;3982835;32;15024259;-76
2021/01/16 09:57:59;;;;;;;3.25;1.90;;;;;;;5.01;89.07;100500.38;4428473;32;20029;-76
2021/01/16 10:03:08;;;;;;;2.53;1.67;;;;;;;5.47;86.54;100498.09;3990243;32;15022732;-76
2021/01/16 10:08:27;;;;;;;3.67;2.28;;;;;;;5.23;87.62;100498.25;3994736;32;15030519;-75
2021/01/16 10:10:53;;;;;;;5.85;2.03;;;;;;;5.19;87.86;100509.41;4445041;32;20095;-76
2021/01/16 10:13:39;;;;;;;2.72;1.70;;;;;;;5.29;88.09;100514.16;4447069;32;20049;-74
2021/01/16 10:18:42;;;;;;;3.45;1.95;;;;;;;6.02;85.50;100520.41;3986771;32;15022342;-75
2021/01/16 10:23:44;;;;;;;5.03;2.45;;;;;;;5.94;85.72;100499.31;3909273;32;15725546;-77
2021/01/16 10:31:24;;;;;;;4.87;2.80;;;;;;;5.93;85.86;100498.50;4012186;31;15020624;-75
2021/01/16 10:33:50;;;;;;;4.28;2.90;;;;;;;5.55;86.68;100496.03;4463841;32;20041;-74
2021/01/16 10:36:18;;;;;;;3.58;2.42;;;;;;;5.66;86.61;100486.38;4459327;32;20033;-78
2021/01/16 10:41:40;;;;;;;4.05;2.50;;;;;;;5.68;85.97;100486.75;3969706;32;15024408;-76
2021/01/16 10:44:08;;;;;;;4.62;2.67;;;;;;;5.86;86.51;100503.41;4427976;32;20114;-78
2021/01/16 10:46:45;;;;;;;3.92;2.78;;;;;;;5.99;85.80;100494.06;4422914;32;20092;-74
2021/01/16 10:51:54;;;;;;;4.70;2.45;;;;;;;6.38;84.77;100484.50;3989366;32;15023737;-76
2021/01/16 10:54:20;;;;;;;4.93;2.22;;;;;;;6.43;83.95;100482.03;4439558;32;20052;-74
2021/01/16 10:59:57;;;;;;;5.95;3.58;;;;;;;7.10;82.52;100475.59;3983912;32;15024392;-76
2021/01/16 11:02:41;;;;;;;5.28;3.37;;;;;;;7.10;82.52;100475.59;4436835;32;20090;-77
2021/01/16 11:05:25;;;;;;;5.22;3.75;;;;;;;6.79;82.72;100477.63;4441042;32;20056;-77
2021/01/16 11:07:53;;;;;;;5.57;4.03;;;;;;;6.94;83.04;100490.19;4435026;32;20412;-76
2021/01/16 11:10:31;;;;;;;5.22;3.97;;;;;;;6.97;81.95;100488.56;4439939;32;20052;-77
2021/01/16 11:13:17;;;;;;;7.60;3.10;;;;;;;7.05;82.41;100476.84;4434972;32;20124;-76
2021/01/16 11:15:43;;;;;;;74.03;18.37;;;;;;;7.21;81.94;100488.19;4440918;32;20030;-76
2021/01/16 11:18:26;;;;;;;9.25;3.85;;;;;;;7.32;82.40;100472.06;4432438;32;20042;-76
2021/01/16 11:20:58;;;;;;;6.75;3.80;;;;;;;7.59;83.32;100478.44;4437555;32;20059;-76
2021/01/16 11:26:20;;;;;;;9.48;4.70;;;;;;;8.44;81.17;100488.16;3985257;32;15023784;-73
2021/01/16 11:28:55;;;;;;;9.02;6.05;;;;;;;8.44;81.17;100488.16;4445261;32;20096;-75
2021/01/16 11:34:19;;;;;;;14.93;7.60;;;;;;;8.33;82.58;100477.13;3977331;32;15025117;-74
2021/01/16 11:39:50;;;;;;;11.20;6.55;;;;;;;9.01;80.29;100464.09;4010984;31;15015962;-74
2021/01/16 11:42:18;;;;;;;14.65;6.95;;;;;;;9.01;80.29;100464.09;4466772;32;20044;-75
2021/01/16 11:44:52;;;;;;;10.77;5.80;;;;;;;8.55;80.41;100463.47;4468348;32;20045;-76
2021/01/16 11:47:18;;;;;;;11.45;5.87;;;;;;;8.57;80.13;100456.22;4459596;32;20070;-77
2021/01/16 11:49:44;;;;;;;14.90;6.55;;;;;;;8.70;81.05;100457.16;4466812;32;20041;-76
2021/01/16 11:52:11;;;;;;;10.52;7.05;;;;;;;8.85;80.92;100450.03;4467083;32;20356;-75
2021/01/16 11:54:37;;;;;;;24.63;8.63;;;;;;;9.09;80.98;100453.50;4473098;32;20037;-76
2021/01/16 11:57:03;;;;;;;13.38;5.82;;;;;;;9.31;79.85;100461.00;4467199;32;20607;-75
2021/01/16 11:59:31;;;;;;;18.23;6.57;;;;;;;9.39;79.37;100456.03;4469447;32;20504;-74
2021/01/16 12:01:57;;;;;;;12.82;3.20;;;;;;;9.44;78.65;100458.28;4473482;32;20346;-75
2021/01/16 12:04:23;;;;;;;8.98;2.60;;;;;;;9.44;78.38;100467.50;4472600;32;20520;-76
2021/01/16 12:06:51;;;;;;;14.98;3.60;;;;;;;9.48;77.91;100459.78;4471501;32;20096;-74
2021/01/16 12:09:16;;;;;;;9.65;2.90;;;;;;;9.32;77.88;100461.78;4464804;32;20396;-75
2021/01/16 12:11:52;;;;;;;6.57;2.25;;;;;;;9.37;77.92;100450.84;4470151;32;20603;-75
2021/01/16 12:14:18;;;;;;;14.68;2.62;;;;;;;9.54;77.55;100451.63;4471195;32;20057;-75
2021/01/16 12:16:44;;;;;;;5.85;1.90;;;;;;;9.50;76.24;100448.09;4471703;32;20117;-76
2021/01/16 12:19:14;;;;;;;10.95;2.22;;;;;;;9.58;76.28;100444.69;4468888;32;20056;-75
2021/01/16 12:21:45;;;;;;;12.00;2.25;;;;;;;9.70;76.12;100443.22;4466909;32;20045;-75
2021/01/16 12:24:13;;;;;;;13.20;2.45;;;;;;;9.79;75.54;100446.19;4467462;32;20013;-75
2021/01/16 12:26:43;;;;;;;12.02;2.22;;;;;;;9.86;74.93;100443.19;4471157;32;20045;-75
2021/01/16 12:29:21;;;;;;;11.45;2.30;;;;;;;9.77;75.47;100437.41;4470568;32;20032;-74
2021/01/16 12:32:00;;;;;;;9.10;2.08;;;;;;;9.85;75.04;100431.16;4457585;32;20064;-75
2021/01/16 12:34:27;;;;;;;12.70;2.67;;;;;;;9.82;74.76;100426.41;4458813;32;20030;-75
2021/01/16 12:36:53;;;;;;;13.73;2.65;;;;;;;9.84;75.56;100425.97;4460011;32;20094;-75
2021/01/16 12:39:20;;;;;;;7.90;1.83;;;;;;;9.73;76.12;100428.28;4451051;32;20049;-75
2021/01/16 12:41:46;;;;;;;10.68;4.15;;;;;;;9.77;75.86;100429.78;4450548;32;20086;-75
2021/01/16 12:44:14;;;;;;;12.60;3.17;;;;;;;9.90;76.38;100429.81;4459860;32;20049;-75
2021/01/16 12:46:43;;;;;;;12.10;2.35;;;;;;;10.02;77.10;100421.47;4455774;32;20085;-77
2021/01/16 12:49:11;;;;;;;16.35;2.12;;;;;;;9.98;75.63;100434.81;4449309;32;20426;-75
2021/01/16 12:51:39;;;;;;;15.93;4.80;;;;;;;9.98;75.14;100428.41;4444215;32;20060;-75
2021/01/16 12:54:12;;;;;;;10.25;2.12;;;;;;;10.16;76.71;100425.16;4436852;32;20162;-75
2021/01/16 12:56:39;;;;;;;12.75;1.80;;;;;;;10.08;74.67;100418.94;4442720;32;20045;-76
2021/01/16 12:59:07;;;;;;;11.65;1.75;;;;;;;10.27;73.95;100423.63;4441450;32;20045;-76
2021/01/16 13:01:34;;;;;;;9.52;1.62;;;;;;;10.47;73.51;100415.03;4446251;32;20060;-75